Time;durP1;ratioP1;P1;durP2;ratioP2;P2;SDS_P1;SDS_P2;PMS_P1;PMS_P2;Temp;Humidity;BMP_temperature;BMP_pressure;BME280_temperature;BME280_humidity;BME280_pressure;Samples;Min_cycle;Max_cycle;Signal;HPM_P1;HPM_P2
2023/01/23 00:01:28;;;;;;;26.73;18.47;;;;;;;-0.03;81.47;96610.09;4979282;28;20597;-87
2023/01/23 00:03:59;;;;;;;25.87;17.70;;;;;;;-0.04;81.67;96613.50;4991631;28;20207;-87
2023/01/23 00:06:26;;;;;;;25.90;17.40;;;;;;;-0.07;81.52;96622.09;4983580;28;20196;-87
2023/01/23 00:08:55;;;;;;;24.50;17.53;;;;;;;-0.14;81.74;96617.44;4972860;28;20200;-87
2023/01/23 00:11:23;;;;;;;25.10;17.60;;;;;;;-0.27;83.01;96627.44;4990671;28;20254;-86
2023/01/23 00:13:50;;;;;;;27.93;18.73;;;;;;;-0.32;83.07;96626.88;4992343;28;20211;-87
2023/01/23 00:16:21;;;;;;;25.53;17.70;;;;;;;-0.33;83.50;96642.13;4975101;28;20204;-87
2023/01/23 00:18:49;;;;;;;25.73;18.03;;;;;;;-0.32;83.50;96633.66;4973135;28;20200;-87
2023/01/23 00:21:17;;;;;;;24.77;17.03;;;;;;;-0.30;83.26;96635.19;4989625;28;20200;-86
2023/01/23 00:23:45;;;;;;;24.40;17.27;;;;;;;-0.26;82.72;96630.78;4992765;28;20214;-87
2023/01/23 00:26:15;;;;;;;25.83;18.23;;;;;;;-0.26;82.41;96634.13;4975982;28;20204;-87
2023/01/23 00:28:52;;;;;;;25.73;17.07;;;;;;;-0.41;83.36;96643.38;4973249;28;20222;-87
2023/01/23 00:31:20;;;;;;;26.43;17.53;;;;;;;-0.57;84.23;96634.97;4989128;28;20222;-87
2023/01/23 00:33:47;;;;;;;24.60;16.37;;;;;;;-0.55;83.96;96638.25;4993045;28;20203;-87
2023/01/23 00:36:15;;;;;;;25.67;17.20;;;;;;;-0.52;83.66;96627.16;4976309;28;20415;-87
2023/01/23 00:38:42;;;;;;;25.20;17.17;;;;;;;-0.60;83.60;96632.63;4979009;28;20910;-87
2023/01/23 00:41:09;;;;;;;27.60;17.07;;;;;;;-0.63;83.87;96630.28;4992752;28;20204;-87
2023/01/23 00:43:36;;;;;;;25.13;17.43;;;;;;;-0.67;84.20;96633.03;4988040;28;20199;-87
2023/01/23 00:46:03;;;;;;;30.03;18.37;;;;;;;-0.72;84.22;96635.81;4973091;28;20806;-87
2023/01/23 00:48:30;;;;;;;25.30;16.90;;;;;;;-0.66;83.41;96638.00;4973600;28;20211;-87
2023/01/23 00:50:56;;;;;;;26.00;17.37;;;;;;;-0.56;83.28;96639.13;4973873;28;20220;-87
2023/01/23 00:53:23;;;;;;;24.20;15.80;;;;;;;-0.46;82.44;96636.94;4973465;28;20215;-87
2023/01/23 00:55:49;;;;;;;26.37;17.13;;;;;;;-0.46;81.94;96642.81;4974917;28;20223;-87
2023/01/23 00:58:17;;;;;;;23.77;16.37;;;;;;;-0.36;81.52;96640.59;4977919;28;20909;-87
2023/01/23 01:00:45;;;;;;;22.67;16.43;;;;;;;-0.30;81.14;96639.44;4972784;28;20211;-87
2023/01/23 01:03:11;;;;;;;24.23;16.47;;;;;;;-0.30;80.58;96647.84;4973897;28;20211;-87
2023/01/23 01:05:38;;;;;;;25.57;16.87;;;;;;;-0.28;80.41;96653.66;4973344;28;20216;-87
2023/01/23 01:08:07;;;;;;;24.83;17.10;;;;;;;-0.30;80.04;96665.56;4992523;28;20885;-88
2023/01/23 01:10:34;;;;;;;24.27;16.17;;;;;;;-0.29;80.06;96667.19;4974865;28;20701;-88
2023/01/23 01:13:02;;;;;;;25.53;16.77;;;;;;;-0.39;80.86;96658.50;4972834;28;20208;-87
2023/01/23 01:15:29;;;;;;;25.60;17.03;;;;;;;-0.32;80.75;96656.41;4989061;28;20224;-87
2023/01/23 01:17:57;;;;;;;24.23;17.10;;;;;;;-0.23;80.45;96664.34;4991796;28;20607;-86
2023/01/23 01:20:25;;;;;;;23.97;16.20;;;;;;;-0.21;80.13;96661.72;4976564;28;20196;-87
2023/01/23 01:22:58;;;;;;;25.50;16.60;;;;;;;-0.15;80.08;96666.44;4972367;28;20208;-87
2023/01/23 01:25:25;;;;;;;24.13;15.87;;;;;;;-0.05;79.55;96668.38;4973483;28;20227;-87
2023/01/23 01:27:51;;;;;;;22.97;16.33;;;;;;;-0.04;79.35;96669.19;4972994;28;20606;-88
2023/01/23 01:30:18;;;;;;;26.07;16.97;;;;;;;-0.20;80.23;96669.25;4974706;28;20231;-87
2023/01/23 01:32:44;;;;;;;23.23;16.27;;;;;;;-0.18;80.54;96666.59;4981387;28;20200;-87
2023/01/23 01:35:17;;;;;;;23.40;16.83;;;;;;;-0.14;80.79;96663.81;4992513;28;20716;-87
2023/01/23 01:37:43;;;;;;;25.47;17.23;;;;;;;-0.11;80.57;96671.25;4976794;28;20621;-88
2023/01/23 01:40:13;;;;;;;25.13;16.83;;;;;;;-0.04;80.65;96670.03;4973607;28;20212;-87
2023/01/23 01:42:44;;;;;;;23.47;15.67;;;;;;;0.10;80.01;96663.38;4985806;28;20195;-87
2023/01/23 01:45:47;;;;;;;25.63;17.27;;;;;;;0.17;79.85;96659.59;4977377;28;20224;-87
2023/01/23 01:48:17;;;;;;;23.20;17.00;;;;;;;0.20;79.72;96651.81;4977948;28;20200;-87
2023/01/23 01:50:48;;;;;;;25.50;16.60;;;;;;;0.25;79.50;96649.84;4990542;28;20274;-87
2023/01/23 01:53:15;;;;;;;26.57;17.10;;;;;;;0.31;79.46;96639.38;4977779;28;20208;-88
2023/01/23 01:55:42;;;;;;;23.97;16.13;;;;;;;0.32;78.72;96641.00;4977336;28;20219;-87
2023/01/23 01:58:09;;;;;;;25.83;16.63;;;;;;;0.31;78.48;96642.72;4991003;28;20206;-87
2023/01/23 02:00:36;;;;;;;25.57;16.57;;;;;;;0.31;78.75;96641.91;4995024;28;20195;-87
2023/01/23 02:03:03;;;;;;;22.07;15.47;;;;;;;0.30;78.66;96646.16;4982827;28;20208;-87
2023/01/23 02:05:34;;;;;;;23.10;15.90;;;;;;;0.28;78.80;96632.75;4978022;28;20228;-88
2023/01/23 02:08:06;;;;;;;23.40;16.87;;;;;;;0.35;78.66;96633.22;4996023;28;20207;-87
2023/01/23 02:10:35;;;;;;;23.43;16.40;;;;;;;0.37;78.83;96639.03;4995245;28;20220;-87
2023/01/23 02:13:23;;;;;;;24.07;15.93;;;;;;;0.30;79.13;96630.13;4990592;28;20294;-87
2023/01/23 02:15:50;;;;;;;22.27;16.23;;;;;;;0.32;79.44;96636.75;4992756;28;20230;-87
2023/01/23 02:18:17;;;;;;;22.70;16.37;;;;;;;0.33;79.02;96637.56;4975456;28;20481;-87
2023/01/23 02:20:44;;;;;;;22.33;16.17;;;;;;;0.37;78.79;96638.22;4977400;28;20203;-87
2023/01/23 02:30:14;;;;;;;24.63;16.60;;;;;;;0.43;78.28;96617.56;4903310;29;20225;-87
2023/01/23 02:32:41;;;;;;;22.40;15.10;;;;;;;0.43;77.83;96623.44;4935368;29;20223;-87
2023/01/23 02:35:12;;;;;;;24.03;16.63;;;;;;;0.42;77.95;96626.06;4960760;28;20224;-87
2023/01/23 02:37:42;;;;;;;21.67;15.83;;;;;;;0.42;77.48;96621.00;5014574;28;20203;-87
2023/01/23 02:40:10;;;;;;;24.20;16.23;;;;;;;0.41;77.39;96620.19;5015197;28;20222;-87
2023/01/23 02:42:41;;;;;;;25.03;16.93;;;;;;;0.41;77.75;96616.84;5014427;28;20203;-87
2023/01/23 02:45:09;;;;;;;24.90;17.00;;;;;;;0.37;77.89;96617.94;5015102;28;20219;-87
2023/01/23 02:47:35;;;;;;;23.17;16.70;;;;;;;0.31;77.91;96607.25;5015110;28;20199;-87
2023/01/23 02:50:02;;;;;;;21.73;15.80;;;;;;;0.32;77.86;96610.59;5007571;28;20230;-87
2023/01/23 02:52:30;;;;;;;23.27;16.77;;;;;;;0.29;78.44;96610.78;5016169;28;20222;-88
2023/01/23 02:54:57;;;;;;;21.93;15.90;;;;;;;0.21;78.98;96610.38;5013799;28;20310;-87
2023/01/23 02:57:23;;;;;;;23.27;16.47;;;;;;;0.24;78.98;96613.56;5014446;28;20194;-87
2023/01/23 03:02:37;;;;;;;22.77;16.20;;;;;;;0.34;79.56;96637.47;5013877;28;20261;-87
2023/01/23 03:05:03;;;;;;;22.67;16.47;;;;;;;0.44;79.00;96639.47;5014730;28;20280;-87
2023/01/23 03:07:30;;;;;;;23.87;17.07;;;;;;;0.47;78.78;96637.56;5014073;28;20661;-87
2023/01/23 03:09:56;;;;;;;22.77;16.10;;;;;;;0.53;78.70;96638.94;5014047;28;20207;-88
2023/01/23 03:12:23;;;;;;;22.50;16.33;;;;;;;0.56;78.69;96644.66;5013716;28;20210;-87
2023/01/23 03:14:53;;;;;;;22.07;15.87;;;;;;;0.58;78.48;96640.28;5013638;28;20238;-87
2023/01/23 03:17:20;;;;;;;22.27;16.13;;;;;;;0.60;78.23;96646.06;5012786;28;20199;-87
2023/01/23 03:19:46;;;;;;;20.63;15.30;;;;;;;0.62;78.06;96646.81;5014311;28;20195;-87
2023/01/23 03:22:13;;;;;;;23.80;16.47;;;;;;;0.62;78.06;96646.81;5014262;28;20203;-87
2023/01/23 03:24:40;;;;;;;23.03;16.87;;;;;;;0.63;77.99;96645.09;5014048;28;20223;-87
2023/01/23 03:27:06;;;;;;;22.40;16.10;;;;;;;0.66;78.43;96645.72;5013868;28;20202;-87
2023/01/23 03:32:19;;;;;;;21.70;15.73;;;;;;;0.70;77.57;96641.31;5013333;28;20249;-87
2023/01/23 03:34:46;;;;;;;20.20;15.43;;;;;;;0.72;77.66;96642.03;5012873;28;20257;-87
2023/01/23 03:37:16;;;;;;;22.73;15.83;;;;;;;0.74;77.70;96635.16;5013695;28;20795;-87
2023/01/23 03:42:26;;;;;;;20.43;15.43;;;;;;;0.77;77.38;96629.09;5013344;28;20198;-88
2023/01/23 03:44:53;;;;;;;19.63;14.70;;;;;;;0.79;77.41;96632.31;5005369;28;20229;-87
2023/01/23 03:47:20;;;;;;;20.67;14.93;;;;;;;0.80;77.15;96636.50;4986223;28;20230;-87
2023/01/23 03:49:47;;;;;;;18.70;14.67;;;;;;;0.78;76.94;96644.19;5014120;28;20199;-87
2023/01/23 03:52:14;;;;;;;19.60;14.00;;;;;;;0.79;76.84;96639.94;5014642;28;20218;-86
2023/01/23 03:54:41;;;;;;;20.63;14.47;;;;;;;0.79;77.15;96639.94;5013884;28;20219;-87
2023/01/23 03:57:07;;;;;;;21.53;15.03;;;;;;;0.80;76.89;96641.56;5012973;28;20202;-87
2023/01/23 03:59:33;;;;;;;19.60;14.77;;;;;;;0.80;76.75;96647.44;5013498;28;20213;-87
2023/01/23 04:02:03;;;;;;;20.20;14.53;;;;;;;0.81;77.08;96638.13;5013715;28;20202;-87
2023/01/23 04:04:31;;;;;;;20.20;14.43;;;;;;;0.79;77.13;96635.69;5013698;28;20234;-87
2023/01/23 04:06:57;;;;;;;19.50;14.40;;;;;;;0.81;76.72;96645.72;5013628;28;20202;-87
2023/01/23 04:09:26;;;;;;;20.57;15.33;;;;;;;0.80;76.98;96644.09;5013841;28;20209;-87
2023/01/23 04:11:53;;;;;;;19.43;14.37;;;;;;;0.82;76.77;96644.81;5012831;28;20219;-87
2023/01/23 04:14:19;;;;;;;20.97;14.67;;;;;;;0.82;76.96;96645.63;5012517;28;20231;-87
2023/01/23 04:16:45;;;;;;;20.37;14.37;;;;;;;0.84;76.68;96648.91;5013532;28;20199;-87
2023/01/23 04:19:12;;;;;;;18.40;14.30;;;;;;;0.85;76.68;96653.06;5011955;28;20721;-87
2023/01/23 04:21:40;;;;;;;21.83;15.50;;;;;;;0.85;76.45;96649.72;5012824;28;20191;-87
2023/01/23 04:24:07;;;;;;;19.20;14.53;;;;;;;0.86;76.63;96659.78;5013181;28;20246;-87
2023/01/23 04:26:35;;;;;;;19.30;14.30;;;;;;;0.82;76.63;96662.56;5012777;28;20195;-87
2023/01/23 04:29:01;;;;;;;20.83;15.13;;;;;;;0.84;76.66;96659.03;5013400;28;20253;-87
2023/01/23 04:31:27;;;;;;;20.80;15.13;;;;;;;0.82;76.59;96660.84;5012640;28;20215;-87
2023/01/23 04:33:54;;;;;;;20.27;15.27;;;;;;;0.82;76.78;96665.09;5013441;28;20213;-87
2023/01/23 04:36:20;;;;;;;18.63;14.70;;;;;;;0.83;76.61;96664.19;5013274;28;20206;-88
2023/01/23 04:38:48;;;;;;;18.00;14.13;;;;;;;0.82;76.83;96660.03;5013802;28;20194;-88
2023/01/23 04:41:19;;;;;;;19.60;15.10;;;;;;;0.83;76.49;96662.47;5004675;28;20210;-86
2023/01/23 04:43:45;;;;;;;19.27;14.80;;;;;;;0.74;76.71;96652.09;5012679;28;20553;-87
2023/01/23 04:46:12;;;;;;;19.03;14.13;;;;;;;0.68;77.08;96659.13;5014146;28;20519;-87
2023/01/23 04:48:38;;;;;;;19.00;14.57;;;;;;;0.73;77.12;96663.94;5014266;28;20207;-87
2023/01/23 04:51:06;;;;;;;20.63;14.87;;;;;;;0.78;76.94;96656.03;5015293;28;20223;-87
2023/01/23 04:53:32;;;;;;;18.77;14.10;;;;;;;0.75;77.00;96657.06;5019706;28;20222;-88
2023/01/23 04:56:00;;;;;;;18.63;13.67;;;;;;;0.68;76.31;96660.84;5012529;28;20219;-87
2023/01/23 04:58:27;;;;;;;16.73;12.93;;;;;;;0.64;77.00;96661.94;5013820;28;20203;-87
2023/01/23 05:00:53;;;;;;;16.27;12.53;;;;;;;0.61;76.82;96662.09;5012642;28;20277;-87
2023/01/23 05:03:20;;;;;;;17.40;13.07;;;;;;;0.65;77.05;96658.50;5012257;28;20202;-86
2023/01/23 05:05:47;;;;;;;16.37;12.47;;;;;;;0.59;76.60;96657.13;5014441;28;20273;-87
2023/01/23 05:08:14;;;;;;;18.13;13.03;;;;;;;0.61;76.86;96651.97;5014428;28;20229;-87
2023/01/23 05:10:40;;;;;;;17.17;13.40;;;;;;;0.64;77.24;96657.69;5014568;28;20226;-87
2023/01/23 05:13:11;;;;;;;16.23;12.37;;;;;;;0.64;77.10;96655.16;5013395;28;20277;-87
2023/01/23 05:15:38;;;;;;;15.03;12.20;;;;;;;0.63;77.06;96656.03;5014320;28;20226;-87
2023/01/23 05:18:25;;;;;;;16.53;12.70;;;;;;;0.66;77.15;96660.13;5014284;28;20199;-87
2023/01/23 05:20:55;;;;;;;17.33;13.30;;;;;;;0.68;77.13;96664.19;5011250;28;20615;-87
2023/01/23 05:23:29;;;;;;;17.13;13.17;;;;;;;0.74;76.93;96659.69;5016783;28;20572;-88
2023/01/23 05:25:57;;;;;;;17.87;13.13;;;;;;;0.75;76.68;96664.66;5017044;28;20230;-88
2023/01/23 05:28:26;;;;;;;18.47;14.00;;;;;;;0.64;76.72;96670.34;5017891;28;20202;-87
2023/01/23 05:30:57;;;;;;;16.73;13.53;;;;;;;0.49;77.60;96680.56;5016640;28;20246;-87
2023/01/23 05:33:27;;;;;;;17.03;13.60;;;;;;;0.41;77.96;96682.69;5016573;28;20222;-87
2023/01/23 05:35:59;;;;;;;16.07;12.63;;;;;;;0.16;78.76;96689.16;5015999;28;20219;-87
2023/01/23 05:38:25;;;;;;;17.77;13.70;;;;;;;0.08;79.71;96693.81;5008150;28;20210;-88
2023/01/23 05:40:52;;;;;;;17.63;13.93;;;;;;;0.13;79.87;96694.41;5015716;28;20210;-88
2023/01/23 05:43:19;;;;;;;16.87;13.67;;;;;;;0.25;79.73;96703.84;5016545;28;20284;-88
2023/01/23 05:45:47;;;;;;;17.80;13.60;;;;;;;0.40;79.02;96702.16;5016609;28;20218;-87
2023/01/23 05:48:16;;;;;;;18.60;14.10;;;;;;;0.53;78.47;96694.69;5016056;28;20618;-88
2023/01/23 05:50:42;;;;;;;18.40;13.40;;;;;;;0.60;78.02;96693.41;5020722;28;20202;-88
2023/01/23 05:53:09;;;;;;;17.87;13.93;;;;;;;0.62;77.62;96689.06;5013209;28;20290;-88
2023/01/23 05:55:37;;;;;;;18.50;14.17;;;;;;;0.60;77.35;96691.69;5011436;28;20241;-87
2023/01/23 05:58:25;;;;;;;19.10;14.23;;;;;;;0.56;77.93;96697.88;5024904;28;20301;-87
2023/01/23 06:00:55;;;;;;;20.43;14.60;;;;;;;0.65;77.52;96691.44;5035500;28;20580;-86
2023/01/23 06:03:23;;;;;;;18.13;13.63;;;;;;;0.67;77.65;96685.38;5035301;28;20214;-87
2023/01/23 06:05:52;;;;;;;19.80;14.77;;;;;;;0.71;77.33;96685.22;5032035;28;20227;-88
2023/01/23 06:08:19;;;;;;;19.30;14.53;;;;;;;0.75;77.05;96689.19;5016977;28;20203;-87
2023/01/23 06:10:46;;;;;;;18.90;14.47;;;;;;;0.78;76.83;96694.06;5020136;28;20198;-88
2023/01/23 06:13:16;;;;;;;19.40;14.93;;;;;;;0.81;77.10;96694.72;5035758;28;20209;-87
2023/01/23 06:15:42;;;;;;;17.20;13.97;;;;;;;0.83;77.02;96687.00;5023073;28;20223;-87
2023/01/23 06:18:11;;;;;;;18.87;14.13;;;;;;;0.84;76.72;96697.06;5014535;28;20289;-88
2023/01/23 06:20:37;;;;;;;21.03;14.47;;;;;;;0.83;76.98;96697.97;5016234;28;20205;-87
2023/01/23 06:23:07;;;;;;;18.70;13.87;;;;;;;0.85;76.45;96708.84;5017359;28;20222;-87
2023/01/23 06:25:39;;;;;;;20.37;14.77;;;;;;;0.85;76.48;96708.84;5015777;28;20227;-88
2023/01/23 06:28:06;;;;;;;21.77;15.17;;;;;;;0.66;77.73;96714.16;5015907;28;20209;-87
2023/01/23 06:30:33;;;;;;;23.20;16.07;;;;;;;0.69;77.91;96706.38;5015246;28;20211;-87
2023/01/23 06:32:59;;;;;;;20.77;15.20;;;;;;;0.76;78.01;96721.25;5015641;28;20231;-88
2023/01/23 06:35:27;;;;;;;23.30;16.80;;;;;;;0.69;87.36;96719.06;5007354;28;20215;-87
2023/01/23 06:37:57;;;;;;;26.53;16.77;;;;;;;0.45;81.93;96714.56;5016792;28;20217;-87
2023/01/23 06:40:23;;;;;;;98.03;60.93;;;;;;;0.45;82.70;96709.50;5015802;28;20203;-87
2023/01/23 06:42:53;;;;;;;105.13;64.47;;;;;;;0.55;82.47;96701.31;5015976;28;20623;-87
2023/01/23 06:45:22;;;;;;;40.83;27.33;;;;;;;0.60;82.50;96694.22;5015284;28;20724;-88
2023/01/23 06:47:55;;;;;;;35.90;21.23;;;;;;;0.66;82.46;96685.47;5014541;28;20289;-89
2023/01/23 06:50:23;;;;;;;32.17;20.03;;;;;;;0.70;82.39;96699.59;5013616;28;20211;-87
2023/01/23 06:53:08;;;;;;;33.87;20.47;;;;;;;0.76;82.46;96695.91;5014532;28;20704;-87
2023/01/23 06:55:39;;;;;;;29.50;19.00;;;;;;;0.71;82.87;96695.34;5015960;28;20294;-88
2023/01/23 06:58:06;;;;;;;32.27;20.07;;;;;;;0.72;82.97;96702.84;5016925;28;20199;-88
2023/01/23 07:00:34;;;;;;;32.50;20.00;;;;;;;0.76;82.90;96698.44;5019898;28;20278;-87
2023/01/23 07:03:02;;;;;;;31.40;19.40;;;;;;;0.79;82.86;96699.03;5017586;28;20483;-87
2023/01/23 07:05:29;;;;;;;31.77;19.13;;;;;;;0.83;82.81;96695.44;5016716;28;20250;-88
2023/01/23 07:07:57;;;;;;;28.53;18.50;;;;;;;0.87;82.88;96701.97;5009802;28;20222;-88
2023/01/23 07:10:53;;;;;;;;;;;;;;;;;;;;;
2023/01/23 07:13:26;;;;;;;33.97;19.67;;;;;;;0.75;84.63;96706.94;4997539;28;20304;-87
2023/01/23 07:15:54;;;;;;;31.47;18.47;;;;;;;0.71;84.60;96711.38;4997324;28;20251;-88
2023/01/23 07:18:37;;;;;;;30.57;19.27;;;;;;;0.74;84.62;96736.53;4995208;28;20235;-88
2023/01/23 07:21:06;;;;;;;29.00;19.00;;;;;;;0.70;84.82;96730.00;4995983;28;20258;-88
2023/01/23 07:23:37;;;;;;;32.47;18.67;;;;;;;0.63;85.53;96736.31;4995693;28;20203;-88
2023/01/23 07:29:43;;;;;;;67.93;42.20;;;;;;;0.72;85.35;96732.47;5009177;28;20626;-88
2023/01/23 07:32:20;;;;;;;48.20;29.77;;;;;;;0.78;85.37;96739.69;5008726;28;20321;-88
2023/01/23 07:35:08;;;;;;;35.47;21.33;;;;;;;0.84;84.86;96744.41;5009325;28;20276;-88
2023/01/23 07:37:58;;;;;;;29.97;18.87;;;;;;;0.88;84.79;96741.63;4995760;28;20528;-88
2023/01/23 07:40:31;;;;;;;30.30;18.07;;;;;;;0.78;85.87;96737.97;4995474;28;20200;-88
2023/01/23 07:43:16;;;;;;;32.27;19.60;;;;;;;0.71;86.29;96740.97;5011260;28;20611;-88
2023/01/23 07:46:05;;;;;;;30.17;18.83;;;;;;;0.71;86.65;96740.97;5015515;28;20234;-89
2023/01/23 07:48:33;;;;;;;32.20;19.17;;;;;;;0.80;86.43;96728.56;5015981;28;20314;-87
2023/01/23 07:54:23;;;;;;;31.73;19.00;;;;;;;0.85;86.68;96735.91;5033989;28;20206;-88
2023/01/23 07:56:51;;;;;;;30.70;20.07;;;;;;;0.91;86.45;96743.16;5035147;28;20248;-87
2023/01/23 07:59:20;;;;;;;33.43;19.73;;;;;;;0.93;86.52;96738.84;5035770;28;20202;-87
2023/01/23 08:01:51;;;;;;;32.83;19.57;;;;;;;0.94;86.72;96745.53;5035257;28;20260;-88
2023/01/23 08:04:23;;;;;;;33.40;20.07;;;;;;;0.97;86.35;96740.25;5034695;28;20221;-87
2023/01/23 08:06:54;;;;;;;33.70;20.23;;;;;;;0.89;87.64;96747.50;5034650;28;20293;-87
2023/01/23 08:12:20;;;;;;;29.57;17.83;;;;;;;0.67;89.26;96745.38;5033338;28;20695;-87
2023/01/23 08:14:57;;;;;;;28.70;17.27;;;;;;;0.79;88.76;96754.00;5033860;28;20275;-87
2023/01/23 08:20:19;;;;;;;27.40;17.97;;;;;;;0.91;87.77;96738.91;5032285;28;20233;-87
2023/01/23 08:22:51;;;;;;;26.50;16.90;;;;;;;0.94;88.17;96748.06;5035404;28;20198;-87
2023/01/23 08:25:22;;;;;;;27.03;16.80;;;;;;;1.00;87.46;96743.44;5018616;28;20266;-87
2023/01/23 08:28:00;;;;;;;24.37;15.33;;;;;;;1.04;87.32;96733.94;5015799;28;20199;-87
2023/01/23 08:30:32;;;;;;;23.53;15.47;;;;;;;1.10;86.75;96735.31;5015130;28;20209;-86
2023/01/23 08:33:05;;;;;;;24.57;16.13;;;;;;;1.09;87.26;96743.81;5004534;28;20258;-88
2023/01/23 08:35:33;;;;;;;22.93;15.27;;;;;;;1.12;87.01;96748.72;5015418;28;20247;-88
2023/01/23 08:38:06;;;;;;;22.43;14.90;;;;;;;1.16;86.57;96747.59;5017041;28;20205;-87
2023/01/23 08:40:45;;;;;;;22.63;15.07;;;;;;;1.11;87.06;96754.69;5016796;28;20543;-87
2023/01/23 08:43:13;;;;;;;22.10;14.80;;;;;;;1.15;86.91;96768.81;5016447;28;20202;-87
2023/01/23 08:46:05;;;;;;;23.60;15.50;;;;;;;1.16;86.40;96760.28;5015752;28;20219;-88
2023/01/23 08:48:35;;;;;;;35.97;24.63;;;;;;;1.23;86.85;96743.81;5015566;28;20201;-87
2023/01/23 08:51:09;;;;;;;35.27;23.00;;;;;;;1.11;87.39;96739.47;5022946;28;20208;-87
2023/01/23 08:53:37;;;;;;;27.43;18.00;;;;;;;1.14;87.24;96739.28;5033084;28;20227;-87
2023/01/23 08:56:15;;;;;;;22.13;15.40;;;;;;;1.19;87.31;96734.75;4998959;28;20272;-87
2023/01/23 08:58:54;;;;;;;23.67;15.33;;;;;;;1.19;90.56;96745.72;4998795;28;20180;-87
2023/01/23 09:01:38;;;;;;;21.50;14.77;;;;;;;1.09;88.58;96757.31;5000072;28;20199;-87
2023/01/23 09:04:09;;;;;;;21.87;15.27;;;;;;;0.96;89.73;96757.19;4997589;28;20217;-87
2023/01/23 09:06:36;;;;;;;24.57;16.57;;;;;;;1.01;90.35;96759.47;4999182;28;20200;-87
2023/01/23 09:09:05;;;;;;;23.23;15.27;;;;;;;1.03;90.03;96761.00;5000267;28;20200;-87
2023/01/23 09:12:04;;;;;;;23.37;15.80;;;;;;;1.08;90.00;96757.41;4998362;28;20286;-89
2023/01/23 09:14:55;;;;;;;22.03;15.33;;;;;;;1.07;88.92;96754.03;4980991;28;20219;-88
2023/01/23 09:17:26;;;;;;;21.37;14.67;;;;;;;1.14;90.44;96759.59;4998947;28;20231;-88
2023/01/23 09:19:58;;;;;;;22.73;15.07;;;;;;;1.21;90.36;96743.91;5004848;28;20207;-87
2023/01/23 09:22:27;;;;;;;20.83;14.70;;;;;;;1.30;88.90;96762.84;5017617;28;20222;-87
2023/01/23 09:25:09;;;;;;;21.13;14.90;;;;;;;1.24;88.61;96758.13;5013829;22;20219;-87
2023/01/23 09:27:38;;;;;;;23.07;15.57;;;;;;;1.10;89.00;96761.47;5001176;28;20231;-87
2023/01/23 09:30:26;;;;;;;22.47;15.13;;;;;;;1.15;89.35;96758.69;5001326;28;20266;-88
2023/01/23 09:32:56;;;;;;;23.07;15.77;;;;;;;1.24;89.15;96756.41;5000412;28;20226;-88
2023/01/23 09:35:44;;;;;;;21.37;15.07;;;;;;;1.21;89.12;96756.59;4999574;28;20223;-87
2023/01/23 09:38:12;;;;;;;21.73;14.63;;;;;;;1.26;88.69;96753.78;4997701;28;20207;-87
2023/01/23 09:40:48;;;;;;;23.63;15.33;;;;;;;1.31;87.98;96745.00;4997597;28;20203;-88
2023/01/23 09:43:20;;;;;;;21.10;14.70;;;;;;;1.40;87.54;96733.47;5003960;28;20194;-87
2023/01/23 09:45:57;;;;;;;20.47;13.80;;;;;;;1.36;87.67;96725.22;4999478;28;20776;-87
2023/01/23 09:48:30;;;;;;;23.33;15.43;;;;;;;1.47;87.56;96727.13;4993865;28;20218;-87
2023/01/23 09:51:16;;;;;;;23.23;15.00;;;;;;;1.55;86.64;96742.69;5000366;28;20199;-87
2023/01/23 09:53:43;;;;;;;22.03;14.47;;;;;;;1.49;86.55;96743.09;5013330;28;20246;-89
2023/01/23 09:56:28;;;;;;;19.73;13.83;;;;;;;1.41;87.15;96760.47;5013371;28;20229;-88
2023/01/23 09:59:00;;;;;;;21.03;14.37;;;;;;;1.38;87.60;96753.84;5013055;28;20202;-87
2023/01/23 10:01:39;;;;;;;21.03;14.07;;;;;;;1.13;88.45;96750.34;5012807;28;20264;-87
2023/01/23 10:04:09;;;;;;;50.20;35.50;;;;;;;1.02;91.04;96745.88;4997007;28;20839;-88
2023/01/23 10:06:54;;;;;;;48.27;33.13;;;;;;;1.14;90.22;96747.72;4992873;28;20222;-87
2023/01/23 10:09:39;;;;;;;24.57;17.20;;;;;;;1.19;89.57;96748.25;4990875;28;20196;-87
2023/01/23 10:12:17;;;;;;;22.00;14.90;;;;;;;1.25;89.59;96729.31;4991668;28;20282;-88
2023/01/23 10:15:23;;;;;;;20.13;14.27;;;;;;;1.41;88.75;96741.91;4993473;28;20226;-88
2023/01/23 10:18:04;;;;;;;18.23;14.00;;;;;;;1.57;87.58;96737.53;4975842;28;20245;-87
2023/01/23 10:20:46;;;;;;;22.27;14.43;;;;;;;1.52;87.50;96737.84;5005250;28;20253;-88
2023/01/23 10:23:30;;;;;;;21.03;15.27;;;;;;;1.56;87.69;96733.34;5012862;28;20199;-87
2023/01/23 10:26:10;;;;;;;19.97;14.63;;;;;;;1.61;87.84;96733.91;5000098;28;20243;-88
2023/01/23 10:28:43;;;;;;;21.93;14.63;;;;;;;1.51;87.72;96726.03;4974272;28;20815;-88
2023/01/23 10:31:31;;;;;;;20.80;14.97;;;;;;;1.63;87.53;96720.22;4994144;28;20290;-88
2023/01/23 10:34:10;;;;;;;21.27;14.90;;;;;;;1.70;86.91;96713.88;4994788;28;20230;-88
2023/01/23 10:36:48;;;;;;;20.40;14.10;;;;;;;1.72;86.88;96713.78;5012154;28;20256;-87
2023/01/23 10:39:40;;;;;;;23.20;14.90;;;;;;;1.61;86.88;96716.13;5014909;28;20202;-87
2023/01/23 10:42:11;;;;;;;20.33;15.13;;;;;;;1.68;87.34;96717.41;5001982;28;20259;-87
2023/01/23 10:44:50;;;;;;;19.40;14.10;;;;;;;1.66;87.13;96717.50;4995676;28;20278;-87
2023/01/23 10:47:28;;;;;;;23.37;15.67;;;;;;;1.74;86.94;96722.06;4992251;28;20218;-88
2023/01/23 10:49:57;;;;;;;21.57;14.87;;;;;;;1.79;86.86;96709.94;4992516;28;20203;-88
2023/01/23 10:52:34;;;;;;;21.33;15.07;;;;;;;1.83;86.68;96708.00;4993537;28;20208;-89
2023/01/23 10:55:25;;;;;;;21.53;15.03;;;;;;;1.78;86.97;96702.41;4997733;28;20246;-88
2023/01/23 10:58:05;;;;;;;20.23;14.60;;;;;;;1.72;86.96;96699.34;4993021;28;20623;-88
2023/01/23 11:00:38;;;;;;;25.13;15.03;;;;;;;1.51;88.12;96697.31;4994527;28;20203;-88
2023/01/23 11:03:31;;;;;;;21.10;15.53;;;;;;;1.66;88.80;96687.03;4997078;28;20286;-88
2023/01/23 11:06:16;;;;;;;20.53;14.60;;;;;;;1.78;87.75;96682.91;4991344;28;20310;-88
2023/01/23 11:08:52;;;;;;;21.13;15.27;;;;;;;1.60;88.38;96678.97;4995067;28;20203;-89
2023/01/23 11:11:25;;;;;;;23.47;15.90;;;;;;;1.69;88.66;96670.81;4995248;28;20448;-88
2023/01/23 11:14:06;;;;;;;30.83;21.03;;;;;;;1.76;88.64;96676.28;4996805;28;20269;-88
2023/01/23 11:16:34;;;;;;;42.37;26.83;;;;;;;1.86;88.09;96674.81;5003213;28;20191;-89
2023/01/23 11:19:16;;;;;;;35.07;24.67;;;;;;;1.91;87.83;96668.56;4994433;28;20254;-88
2023/01/23 11:21:53;;;;;;;23.70;15.73;;;;;;;1.79;88.16;96671.03;4994134;28;20231;-88
2023/01/23 11:24:28;;;;;;;21.07;14.27;;;;;;;1.80;87.86;96673.47;4984224;28;20758;-87
2023/01/23 11:27:05;;;;;;;22.40;15.40;;;;;;;1.86;88.06;96669.75;4994353;28;20233;-88
2023/01/23 11:30:01;;;;;;;22.17;15.43;;;;;;;1.99;87.83;96657.88;4994252;28;20265;-88
2023/01/23 11:32:41;;;;;;;21.73;15.33;;;;;;;2.09;87.22;96648.78;4993293;28;20244;-88
2023/01/23 11:35:24;;;;;;;20.43;14.70;;;;;;;1.99;87.93;96648.53;4994171;28;20254;-87
2023/01/23 11:38:03;;;;;;;22.17;15.37;;;;;;;2.03;87.53;96655.06;4994800;28;20210;-88
2023/01/23 11:40:34;;;;;;;20.37;15.20;;;;;;;1.97;88.37;96645.28;4994400;28;20206;-88
2023/01/23 11:43:02;;;;;;;20.03;14.50;;;;;;;2.04;88.04;96649.06;4993364;28;20211;-88
2023/01/23 11:45:45;;;;;;;22.63;15.27;;;;;;;2.12;87.66;96647.78;5008040;28;20219;-88
2023/01/23 11:48:49;;;;;;;20.67;14.57;;;;;;;1.79;89.26;96643.09;5014505;28;20195;-88
2023/01/23 11:51:24;;;;;;;21.13;15.07;;;;;;;1.85;90.06;96646.06;5013234;28;20198;-88
2023/01/23 11:54:03;;;;;;;20.37;14.87;;;;;;;1.85;90.22;96645.25;5015666;28;20222;-88
2023/01/23 11:56:59;;;;;;;19.17;14.43;;;;;;;1.83;90.50;96647.06;5014392;28;20206;-87
2023/01/23 11:59:51;;;;;;;19.73;14.17;;;;;;;1.68;91.65;96643.78;5000812;28;20209;-88
2023/01/23 12:02:46;;;;;;;21.30;15.03;;;;;;;1.71;91.65;96643.59;4975454;28;20263;-88
2023/01/23 12:05:40;;;;;;;19.73;14.07;;;;;;;1.60;91.56;96638.34;4975951;28;20247;-87
2023/01/23 12:08:25;;;;;;;19.47;14.50;;;;;;;1.66;91.60;96628.66;4977567;28;20264;-87
2023/01/23 12:11:11;;;;;;;29.90;20.27;;;;;;;1.64;91.15;96627.94;4998184;28;20246;-88
2023/01/23 12:13:52;;;;;;;24.63;17.33;;;;;;;1.69;90.93;96617.50;5014159;28;20225;-88
2023/01/23 12:16:28;;;;;;;21.10;15.50;;;;;;;1.76;90.35;96615.38;5001508;28;20738;-88